Marsland, Nebraska
Current Conditions -  °F | °C
As of 7:53 AM on Thursday 18 Dec 2014 (Local Time) from KCDR Reporting Station
Clear Clear  
Wind Chill: -4°   Ceiling: Unl
Heat Index:   Visibility: 7mi
Dew Point:   Wind: 5mph
Humidity: 84%   Direction: 260°W
Pressure: 30.05"   Gusts: NA
Location:  42.44°N, 103.3°W
Report Text: KCDR 181453Z AUTO 26004KT 7SM CLR M15/M17 A3005 RMK AO2 SLP246 I1000 I3001 T11501172 53007
Loading
Personal Weather Stations






























Interactive Weather Map New forecast layout! Learn more

10-Day Weather Forecast

Advertisements
Track Severe Weather on mobile